createdAt,value
2018-05-25T00:00:01.073Z,18.37
2018-05-25T00:01:01.253Z,18.38
2018-05-25T00:02:01.436Z,18.35
2018-05-25T00:03:01.625Z,18.29
2018-05-25T00:04:01.804Z,18.29
2018-05-25T00:05:01.985Z,18.35
2018-05-25T00:06:02.161Z,18.33
2018-05-25T00:07:02.344Z,18.38
2018-05-25T00:08:02.527Z,18.28
2018-05-25T00:09:02.703Z,18.34
2018-05-25T00:10:02.878Z,18.31
2018-05-25T00:11:03.056Z,18.37
2018-05-25T00:12:03.236Z,18.33
2018-05-25T00:13:03.413Z,18.41
2018-05-25T00:14:03.590Z,18.38
2018-05-25T00:15:03.784Z,18.41
2018-05-25T00:16:03.968Z,18.40
2018-05-25T00:17:04.149Z,18.35
2018-05-25T00:18:04.323Z,18.38
2018-05-25T00:19:04.510Z,18.38
2018-05-25T00:20:04.686Z,18.37
2018-05-25T00:21:04.861Z,18.38
2018-05-25T00:22:05.040Z,18.34
2018-05-25T00:23:05.213Z,18.26
2018-05-25T00:24:05.388Z,18.28
2018-05-25T00:25:05.567Z,18.29
2018-05-25T00:26:05.759Z,18.26
2018-05-25T00:27:05.975Z,18.33
2018-05-25T00:28:06.122Z,18.33
2018-05-25T00:29:06.304Z,18.28
2018-05-25T00:30:06.493Z,18.33
2018-05-25T00:31:06.671Z,18.29
2018-05-25T00:32:06.850Z,18.29
2018-05-25T00:33:07.026Z,18.23
2018-05-25T00:34:07.202Z,18.26
2018-05-25T00:35:07.375Z,18.26
2018-05-25T00:36:07.556Z,18.22
2018-05-25T00:37:07.744Z,18.26
2018-05-25T00:38:07.930Z,18.29
2018-05-25T00:39:08.116Z,18.25
2018-05-25T00:40:08.301Z,18.23
2018-05-25T00:41:08.481Z,18.23
2018-05-25T00:42:08.664Z,18.28
2018-05-25T00:43:08.846Z,18.23
2018-05-25T00:44:09.037Z,18.25
2018-05-25T00:45:09.229Z,18.28
2018-05-25T00:46:09.414Z,18.23
2018-05-25T00:47:09.592Z,18.20
2018-05-25T00:48:09.771Z,18.33
2018-05-25T00:49:09.947Z,18.33
2018-05-25T00:50:10.135Z,18.26
2018-05-25T00:51:10.315Z,18.29
2018-05-25T00:52:10.493Z,18.40
2018-05-25T00:53:10.665Z,18.29
2018-05-25T00:54:10.842Z,18.35
2018-05-25T00:55:11.022Z,18.38
2018-05-25T00:56:11.207Z,18.33
2018-05-25T00:57:11.393Z,18.38
2018-05-25T00:58:11.575Z,18.40
2018-05-25T00:59:11.762Z,18.28
2018-05-25T01:00:11.945Z,18.25
2018-05-25T01:01:12.120Z,18.26
2018-05-25T01:02:12.302Z,18.37
2018-05-25T01:03:12.472Z,18.20
2018-05-25T01:04:12.647Z,18.26
2018-05-25T01:05:12.827Z,18.11
2018-05-25T01:06:13.011Z,18.25
2018-05-25T01:07:13.197Z,18.20
2018-05-25T01:08:13.378Z,18.19
2018-05-25T01:09:13.558Z,18.26
2018-05-25T01:10:13.747Z,18.23
2018-05-25T01:11:13.926Z,18.26
2018-05-25T01:12:14.111Z,18.19
2018-05-25T01:13:14.287Z,18.23
2018-05-25T01:14:14.466Z,18.22
2018-05-25T01:15:14.644Z,18.28
2018-05-25T01:16:14.819Z,18.16
2018-05-25T01:17:14.992Z,18.22
2018-05-25T01:18:15.174Z,18.22
2018-05-25T01:19:15.352Z,18.22
2018-05-25T01:20:15.533Z,18.22
2018-05-25T01:21:15.714Z,18.25
2018-05-25T01:22:15.895Z,18.18
2018-05-25T01:23:16.082Z,18.07
2018-05-25T01:24:16.259Z,18.26
2018-05-25T01:25:16.445Z,18.28
2018-05-25T01:26:16.633Z,18.25
2018-05-25T01:27:16.812Z,18.26
2018-05-25T01:28:16.987Z,18.25
2018-05-25T01:29:17.166Z,18.25
2018-05-25T01:30:17.345Z,18.22
2018-05-25T01:31:17.519Z,18.13
2018-05-25T01:32:17.705Z,18.10
2018-05-25T01:33:17.881Z,18.16
2018-05-25T01:34:18.062Z,18.16
2018-05-25T01:35:18.238Z,18.13
2018-05-25T01:36:18.418Z,18.19
2018-05-25T01:37:18.603Z,18.16
2018-05-25T01:38:18.787Z,18.23
2018-05-25T01:39:18.978Z,18.13
2018-05-25T01:40:19.158Z,18.07
2018-05-25T01:41:19.331Z,18.10
2018-05-25T01:42:19.513Z,18.16
2018-05-25T01:43:19.694Z,18.00
2018-05-25T01:44:19.870Z,18.04
2018-05-25T01:45:20.054Z,18.16
2018-05-25T01:46:20.223Z,18.16
2018-05-25T01:47:20.399Z,18.18
2018-05-25T01:48:20.580Z,18.15
2018-05-25T01:49:20.751Z,18.15
2018-05-25T01:50:20.931Z,18.16
2018-05-25T01:51:21.108Z,18.15
2018-05-25T01:52:21.288Z,18.20
2018-05-25T01:53:21.465Z,18.11
2018-05-25T01:54:21.647Z,18.11
2018-05-25T01:55:21.838Z,18.10
2018-05-25T01:56:22.016Z,18.07
2018-05-25T01:57:22.196Z,18.13
2018-05-25T01:58:22.377Z,18.11
2018-05-25T01:59:22.553Z,18.01
2018-05-25T02:00:22.734Z,18.05
2018-05-25T02:01:22.919Z,18.01
2018-05-25T02:02:23.101Z,18.07
2018-05-25T02:03:23.279Z,18.07
2018-05-25T02:04:23.460Z,18.05
2018-05-25T02:05:23.641Z,18.16
2018-05-25T02:06:23.830Z,18.05
2018-05-25T02:07:24.009Z,18.13
2018-05-25T02:08:24.186Z,18.18
2018-05-25T02:09:24.361Z,18.11
2018-05-25T02:10:24.551Z,18.11
2018-05-25T02:11:24.725Z,18.07
2018-05-25T02:12:24.900Z,18.10
2018-05-25T02:13:25.083Z,18.11
2018-05-25T02:14:25.273Z,17.94
2018-05-25T02:15:25.455Z,18.01
2018-05-25T02:16:25.638Z,18.03
2018-05-25T02:17:25.816Z,18.10
2018-05-25T02:18:25.998Z,18.10
2018-05-25T02:19:26.175Z,17.97
2018-05-25T02:20:26.352Z,18.15
2018-05-25T02:21:26.531Z,18.08
2018-05-25T02:22:26.717Z,18.13
2018-05-25T02:23:26.895Z,18.07
2018-05-25T02:24:27.080Z,17.95
2018-05-25T02:25:27.258Z,18.00
2018-05-25T02:26:27.439Z,17.94
2018-05-25T02:27:27.615Z,18.00
2018-05-25T02:28:27.794Z,17.89
2018-05-25T02:29:27.972Z,18.03
2018-05-25T02:30:28.149Z,17.97
2018-05-25T02:31:28.322Z,17.85
2018-05-25T02:32:28.502Z,17.78
2018-05-25T02:33:28.687Z,17.80
2018-05-25T02:34:28.871Z,17.80
2018-05-25T02:35:29.052Z,17.86
2018-05-25T02:36:29.238Z,17.82
2018-05-25T02:37:29.417Z,17.87
2018-05-25T02:38:29.593Z,17.92
2018-05-25T02:39:29.778Z,17.95
2018-05-25T02:40:29.958Z,17.97
2018-05-25T02:41:30.147Z,17.92
2018-05-25T02:42:30.317Z,17.90
2018-05-25T02:43:30.507Z,17.92
2018-05-25T02:44:30.687Z,17.92
2018-05-25T02:45:30.868Z,17.89
2018-05-25T02:46:31.049Z,17.90
2018-05-25T02:47:31.227Z,17.82
2018-05-25T02:48:31.406Z,17.83
2018-05-25T02:49:31.600Z,17.83
2018-05-25T02:50:31.781Z,17.87
2018-05-25T02:51:31.965Z,17.87
2018-05-25T02:52:32.145Z,17.82
2018-05-25T02:53:32.325Z,17.86
2018-05-25T02:54:32.503Z,17.85
2018-05-25T02:55:32.697Z,17.85
2018-05-25T02:56:32.877Z,17.85
2018-05-25T02:57:33.061Z,17.85
2018-05-25T02:58:33.242Z,17.76
2018-05-25T02:59:33.422Z,17.82
2018-05-25T03:00:33.616Z,17.70
2018-05-25T03:01:33.796Z,17.72
2018-05-25T03:02:33.972Z,17.70
2018-05-25T03:03:34.147Z,17.60
2018-05-25T03:04:34.325Z,17.54
2018-05-25T03:05:34.500Z,17.57
2018-05-25T03:06:34.688Z,17.59
2018-05-25T03:07:34.872Z,17.63
2018-05-25T03:08:35.063Z,17.65
2018-05-25T03:09:35.249Z,17.57
2018-05-25T03:10:35.441Z,17.64
2018-05-25T03:11:35.620Z,17.70
2018-05-25T03:12:35.800Z,17.64
2018-05-25T03:13:35.983Z,17.71
2018-05-25T03:14:36.157Z,17.54
2018-05-25T03:15:36.342Z,17.60
2018-05-25T03:16:36.536Z,17.65
2018-05-25T03:17:36.720Z,17.52
2018-05-25T03:18:36.900Z,17.54
2018-05-25T03:19:37.073Z,17.51
2018-05-25T03:20:37.246Z,17.57
2018-05-25T03:21:37.427Z,17.49
2018-05-25T03:22:37.595Z,17.49
2018-05-25T03:23:37.777Z,17.39
2018-05-25T03:24:37.963Z,17.44
2018-05-25T03:25:38.142Z,17.31
2018-05-25T03:26:38.330Z,17.38
2018-05-25T03:27:38.507Z,17.30
2018-05-25T03:28:38.684Z,17.34
2018-05-25T03:29:38.866Z,17.33
2018-05-25T03:30:39.045Z,17.33
2018-05-25T03:31:39.227Z,17.41
2018-05-25T03:32:39.409Z,17.41
2018-05-25T03:33:39.590Z,17.38
2018-05-25T03:34:39.790Z,17.48
2018-05-25T03:35:39.979Z,17.42
2018-05-25T03:36:40.149Z,17.49
2018-05-25T03:37:40.332Z,17.41
2018-05-25T03:38:40.514Z,17.46
2018-05-25T03:39:40.705Z,17.45
2018-05-25T03:40:40.881Z,17.36
2018-05-25T03:41:41.058Z,17.46
2018-05-25T03:42:41.348Z,17.45
2018-05-25T03:43:41.444Z,17.44
2018-05-25T03:44:41.660Z,17.41
2018-05-25T03:45:41.843Z,17.45
2018-05-25T03:46:42.024Z,17.46
2018-05-25T03:47:42.211Z,17.52
2018-05-25T03:48:42.396Z,17.36
2018-05-25T03:49:42.584Z,17.42
2018-05-25T03:50:42.762Z,17.31
2018-05-25T03:51:42.947Z,17.49
2018-05-25T03:52:43.134Z,17.39
2018-05-25T03:53:43.312Z,17.34
2018-05-25T03:54:43.489Z,17.42
2018-05-25T03:55:43.666Z,17.51
2018-05-25T03:56:43.842Z,17.42
2018-05-25T03:57:44.028Z,17.48
2018-05-25T03:58:44.207Z,17.49
2018-05-25T03:59:44.400Z,17.46
2018-05-25T04:00:44.582Z,17.38
2018-05-25T04:01:44.763Z,17.56
2018-05-25T04:02:44.941Z,17.46
2018-05-25T04:03:45.126Z,17.54
2018-05-25T04:04:45.317Z,17.52
2018-05-25T04:05:45.494Z,17.60
2018-05-25T04:06:45.685Z,17.59
2018-05-25T04:07:45.879Z,17.56
2018-05-25T04:08:46.055Z,17.59
2018-05-25T04:09:46.228Z,17.68
2018-05-25T04:10:46.407Z,17.68
2018-05-25T04:11:46.588Z,17.71
2018-05-25T04:12:46.763Z,17.70
2018-05-25T04:13:46.938Z,17.74
2018-05-25T04:14:47.138Z,17.76
2018-05-25T04:15:47.325Z,17.74
2018-05-25T04:16:47.515Z,17.67
2018-05-25T04:17:47.707Z,17.68
2018-05-25T04:18:47.886Z,17.64
2018-05-25T04:19:48.068Z,17.64
2018-05-25T04:20:48.253Z,17.65
2018-05-25T04:21:48.441Z,17.67
2018-05-25T04:22:48.618Z,17.65
2018-05-25T04:23:48.804Z,17.71
2018-05-25T04:24:48.986Z,17.78
2018-05-25T04:25:49.167Z,17.70
2018-05-25T04:26:49.401Z,17.67
2018-05-25T04:27:49.578Z,17.79
2018-05-25T04:28:49.776Z,17.64
2018-05-25T04:29:49.956Z,17.72
2018-05-25T04:30:50.167Z,17.76
2018-05-25T04:31:50.324Z,17.80
2018-05-25T04:32:50.518Z,17.82
2018-05-25T04:33:50.710Z,17.70
2018-05-25T04:34:50.876Z,17.68
2018-05-25T04:35:51.071Z,17.70
2018-05-25T04:36:51.271Z,17.71
2018-05-25T04:37:51.458Z,17.79
2018-05-25T04:38:53.503Z,17.70
2018-05-25T04:39:54.561Z,17.70
2018-05-25T04:40:54.398Z,17.68
2018-05-25T04:41:53.897Z,17.74
2018-05-25T04:42:55.885Z,17.74
2018-05-25T04:43:53.966Z,17.70
2018-05-25T04:44:55.187Z,17.79
2018-05-25T04:45:53.433Z,17.76
2018-05-25T04:46:53.361Z,17.80
2018-05-25T04:47:53.206Z,17.83
2018-05-25T04:48:53.253Z,17.85
2018-05-25T04:49:53.440Z,17.87
2018-05-25T04:50:53.632Z,17.85
2018-05-25T04:51:53.826Z,17.82
2018-05-25T04:52:54.019Z,17.79
2018-05-25T04:53:54.209Z,17.83
2018-05-25T04:54:54.370Z,17.86
2018-05-25T04:55:54.565Z,17.87
2018-05-25T04:56:54.741Z,17.86
2018-05-25T04:57:54.924Z,17.94
2018-05-25T04:58:57.412Z,17.89
2018-05-25T04:59:57.743Z,18.00
2018-05-25T05:00:57.820Z,18.04
2018-05-25T05:01:57.634Z,17.98
2018-05-25T05:02:57.517Z,18.05
2018-05-25T05:03:58.008Z,18.10
2018-05-25T05:04:59.032Z,18.13
2018-05-25T05:05:57.500Z,18.16
2018-05-25T05:06:58.059Z,18.19
2018-05-25T05:07:59.512Z,18.28
2018-05-25T05:08:56.658Z,18.28
2018-05-25T05:09:56.692Z,18.26
2018-05-25T05:10:56.870Z,18.25
2018-05-25T05:11:57.049Z,18.37
2018-05-25T05:12:57.236Z,18.43
2018-05-25T05:13:58.322Z,18.40
2018-05-25T05:14:58.646Z,18.38
2018-05-25T05:15:58.215Z,18.41
2018-05-25T05:16:57.869Z,18.49
2018-05-25T05:17:59.438Z,18.55
2018-05-25T05:18:58.525Z,18.45
2018-05-25T05:19:58.561Z,18.50
2018-05-25T05:20:58.851Z,18.49
2018-05-25T05:21:58.793Z,18.55
2018-05-25T05:22:59.240Z,18.55
2018-05-25T05:23:59.127Z,18.58
2018-05-25T05:24:59.349Z,18.59
2018-05-25T05:25:59.561Z,18.62
2018-05-25T05:26:59.740Z,18.58
2018-05-25T05:27:59.929Z,18.56
2018-05-25T05:29:00.483Z,18.66
2018-05-25T05:30:00.302Z,18.63
2018-05-25T05:31:00.500Z,18.65
2018-05-25T05:32:00.686Z,18.60
2018-05-25T05:33:05.880Z,18.68
2018-05-25T05:34:03.148Z,18.71
2018-05-25T05:35:01.194Z,18.74
2018-05-25T05:36:02.003Z,18.65
2018-05-25T05:37:01.542Z,18.71
2018-05-25T05:38:01.724Z,18.84
2018-05-25T05:39:01.916Z,18.89
2018-05-25T05:40:02.099Z,18.96
2018-05-25T05:41:02.277Z,18.93
2018-05-25T05:42:02.452Z,18.92
2018-05-25T05:43:02.646Z,18.98
2018-05-25T05:44:02.833Z,19.04
2018-05-25T05:45:03.025Z,19.04
2018-05-25T05:46:03.239Z,19.14
2018-05-25T05:47:03.443Z,19.15
2018-05-25T05:48:03.627Z,19.16
2018-05-25T05:49:03.817Z,19.21
2018-05-25T05:50:04.002Z,19.26
2018-05-25T05:51:04.198Z,19.27
2018-05-25T05:52:04.387Z,19.30
2018-05-25T05:53:04.581Z,19.39
2018-05-25T05:54:04.770Z,19.47
2018-05-25T05:55:04.964Z,19.48
2018-05-25T05:56:05.148Z,19.58
2018-05-25T05:57:05.327Z,19.67
2018-05-25T05:58:05.504Z,19.77
2018-05-25T05:59:05.692Z,19.74
2018-05-25T06:00:05.868Z,19.77
2018-05-25T06:01:06.049Z,19.95
2018-05-25T06:02:06.233Z,19.91
2018-05-25T06:03:06.412Z,19.99
2018-05-25T06:04:06.624Z,20.06
2018-05-25T06:05:06.806Z,20.16
2018-05-25T06:06:06.985Z,20.29
2018-05-25T06:07:07.174Z,20.40
2018-05-25T06:08:08.114Z,20.32
2018-05-25T06:09:07.548Z,20.41
2018-05-25T06:10:07.760Z,20.48
2018-05-25T06:11:07.940Z,20.55
2018-05-25T06:12:08.138Z,20.56
2018-05-25T06:13:08.331Z,20.66
2018-05-25T06:14:08.510Z,20.77
2018-05-25T06:15:08.702Z,20.80
2018-05-25T06:16:08.882Z,20.93
2018-05-25T06:17:09.072Z,20.90
2018-05-25T06:18:09.251Z,20.95
2018-05-25T06:19:09.446Z,20.92
2018-05-25T06:20:09.674Z,21.03
2018-05-25T06:21:09.824Z,21.06
2018-05-25T06:22:10.025Z,20.93
2018-05-25T06:23:10.205Z,21.00
2018-05-25T06:24:10.686Z,21.00
2018-05-25T06:25:10.512Z,21.05
2018-05-25T06:26:10.707Z,21.03
2018-05-25T06:27:10.902Z,21.09
2018-05-25T06:28:11.085Z,20.92
2018-05-25T06:29:11.298Z,20.95
2018-05-25T06:30:11.473Z,21.05
2018-05-25T06:31:11.661Z,21.24
2018-05-25T06:32:11.857Z,21.33
2018-05-25T06:33:12.077Z,21.37
2018-05-25T06:34:12.250Z,21.64
2018-05-25T06:35:12.702Z,21.60
2018-05-25T06:36:12.868Z,21.91
2018-05-25T06:37:13.047Z,21.96
2018-05-25T06:38:13.436Z,22.14
2018-05-25T06:39:13.407Z,22.22
2018-05-25T06:40:13.651Z,22.30
2018-05-25T06:41:13.807Z,22.29
2018-05-25T06:42:13.898Z,22.57
2018-05-25T06:43:14.042Z,22.76
2018-05-25T06:44:14.236Z,23.25
2018-05-25T06:45:14.525Z,24.02
2018-05-25T06:46:14.816Z,24.88
2018-05-25T06:47:14.779Z,25.53
2018-05-25T06:48:14.830Z,26.40
2018-05-25T06:49:15.067Z,27.22
2018-05-25T06:50:15.250Z,27.73
2018-05-25T06:51:15.438Z,28.11
2018-05-25T06:52:15.646Z,28.04
2018-05-25T06:53:15.839Z,28.25
2018-05-25T06:54:16.021Z,28.47
2018-05-25T06:55:16.212Z,28.56
2018-05-25T06:56:16.405Z,28.67
2018-05-25T06:57:16.590Z,29.14
2018-05-25T06:58:16.781Z,29.31
2018-05-25T06:59:16.975Z,29.53
2018-05-25T07:00:17.165Z,29.81
2018-05-25T07:01:17.362Z,29.91
2018-05-25T07:02:17.570Z,30.25
2018-05-25T07:03:17.771Z,30.06
2018-05-25T07:04:17.976Z,30.09
2018-05-25T07:05:18.167Z,30.08
2018-05-25T07:06:18.432Z,30.00
2018-05-25T07:07:18.471Z,29.75
2018-05-25T07:08:18.659Z,29.49
2018-05-25T07:09:18.861Z,29.60
2018-05-25T07:10:19.059Z,29.95
2018-05-25T07:11:19.282Z,30.13
2018-05-25T07:12:19.471Z,30.84
2018-05-25T07:13:19.670Z,31.24
2018-05-25T07:14:19.995Z,31.28
2018-05-25T07:15:20.067Z,31.40
2018-05-25T07:16:20.251Z,31.40
2018-05-25T07:17:20.465Z,31.22
2018-05-25T07:18:20.658Z,31.40
2018-05-25T07:19:20.860Z,31.54
2018-05-25T07:20:21.040Z,32.11
2018-05-25T07:21:21.228Z,32.67
2018-05-25T07:22:21.415Z,33.11
2018-05-25T07:23:21.610Z,33.24
2018-05-25T07:24:21.806Z,33.43
2018-05-25T07:25:22.006Z,33.39
2018-05-25T07:26:22.205Z,33.57
2018-05-25T07:27:22.544Z,33.81
2018-05-25T07:28:22.628Z,33.94
2018-05-25T07:29:22.834Z,33.89
2018-05-25T07:30:23.025Z,34.11
2018-05-25T07:31:23.223Z,34.33
2018-05-25T07:32:23.409Z,33.90
2018-05-25T07:33:23.635Z,34.08
2018-05-25T07:34:23.846Z,33.90
2018-05-25T07:35:24.080Z,34.17
2018-05-25T07:36:24.398Z,33.76
2018-05-25T07:37:24.350Z,34.11
2018-05-25T07:38:24.556Z,34.45
2018-05-25T07:39:24.824Z,34.58
2018-05-25T07:40:24.948Z,34.57
2018-05-25T07:41:25.137Z,34.42
2018-05-25T07:42:25.329Z,33.19
2018-05-25T07:43:25.541Z,33.40
2018-05-25T07:44:25.728Z,33.99
2018-05-25T07:45:25.928Z,34.58
2018-05-25T07:46:26.128Z,34.88
2018-05-25T07:47:26.326Z,34.92
2018-05-25T07:48:26.511Z,34.86
2018-05-25T07:49:26.701Z,34.93
2018-05-25T07:50:26.894Z,34.74
2018-05-25T07:51:27.080Z,34.51
2018-05-25T07:52:27.272Z,34.81
2018-05-25T07:53:27.466Z,35.27
2018-05-25T07:54:27.693Z,35.45
2018-05-25T07:55:27.853Z,35.60
2018-05-25T07:56:28.063Z,35.61
2018-05-25T07:57:28.382Z,35.34
2018-05-25T07:58:31.538Z,35.51
2018-05-25T07:59:33.151Z,35.53
2018-05-25T08:00:31.710Z,35.41
2018-05-25T08:01:30.744Z,35.46
2018-05-25T08:02:32.952Z,35.56
2018-05-25T08:03:30.912Z,35.17
2018-05-25T08:04:32.189Z,34.75
2018-05-25T08:05:32.228Z,34.71
2018-05-25T08:06:33.307Z,34.83
2018-05-25T08:07:32.270Z,34.61
2018-05-25T08:08:30.271Z,34.43
2018-05-25T08:09:30.468Z,34.18
2018-05-25T08:10:30.662Z,34.43
2018-05-25T08:11:30.873Z,34.73
2018-05-25T08:12:31.054Z,35.04
2018-05-25T08:13:31.250Z,35.48
2018-05-25T08:14:31.457Z,35.83
2018-05-25T08:15:31.647Z,35.24
2018-05-25T08:16:31.839Z,34.16
2018-05-25T08:17:32.031Z,32.86
2018-05-25T08:18:32.221Z,31.92
2018-05-25T08:19:32.406Z,32.07
2018-05-25T08:20:32.612Z,31.71
2018-05-25T08:21:32.800Z,31.03
2018-05-25T08:22:33.000Z,30.50
2018-05-25T08:23:33.216Z,29.97
2018-05-25T08:24:33.398Z,29.81
2018-05-25T08:25:33.615Z,30.03
2018-05-25T08:26:33.807Z,30.53
2018-05-25T08:27:34.008Z,31.21
2018-05-25T08:28:34.232Z,31.97
2018-05-25T08:29:34.453Z,33.28
2018-05-25T08:30:34.653Z,33.47
2018-05-25T08:31:34.862Z,34.25
2018-05-25T08:32:35.058Z,34.90
2018-05-25T08:33:35.254Z,35.41
2018-05-25T08:34:35.457Z,36.09
2018-05-25T08:35:35.691Z,36.49
2018-05-25T08:36:35.768Z,35.88
2018-05-25T08:37:35.961Z,35.49
2018-05-25T08:38:36.159Z,35.34
2018-05-25T08:39:36.345Z,35.61
2018-05-25T08:40:36.543Z,35.17
2018-05-25T08:41:36.748Z,35.08
2018-05-25T08:42:36.956Z,35.71
2018-05-25T08:43:37.160Z,35.86
2018-05-25T08:44:37.356Z,36.12
2018-05-25T08:45:39.987Z,35.45
2018-05-25T08:46:37.671Z,35.34
2018-05-25T08:47:37.875Z,34.05
2018-05-25T08:48:38.076Z,33.20
2018-05-25T08:49:38.297Z,32.18
2018-05-25T08:50:38.487Z,31.10
2018-05-25T08:51:38.965Z,30.47
2018-05-25T08:52:38.907Z,29.59
2018-05-25T08:53:41.572Z,29.19
2018-05-25T08:54:40.744Z,28.79
2018-05-25T08:55:39.996Z,28.41
2018-05-25T08:56:40.057Z,27.95
2018-05-25T08:57:39.840Z,27.68
2018-05-25T08:58:40.033Z,27.27
2018-05-25T08:59:40.235Z,27.15
2018-05-25T09:00:40.429Z,26.83
2018-05-25T09:01:40.622Z,26.68
2018-05-25T09:02:40.814Z,26.19
2018-05-25T09:03:41.016Z,26.03
2018-05-25T09:04:41.205Z,25.98
2018-05-25T09:05:41.428Z,25.80
2018-05-25T09:06:41.636Z,25.73
2018-05-25T09:07:41.782Z,25.80
2018-05-25T09:08:42.047Z,25.78
2018-05-25T09:09:42.224Z,25.51
2018-05-25T09:10:42.416Z,25.31
2018-05-25T09:11:42.619Z,25.18
2018-05-25T09:12:44.313Z,25.17
2018-05-25T09:13:43.011Z,25.18
2018-05-25T09:14:43.204Z,25.17
2018-05-25T09:15:43.453Z,25.22
2018-05-25T09:16:43.615Z,25.38
2018-05-25T09:17:43.839Z,25.44
2018-05-25T09:18:44.024Z,25.63
2018-05-25T09:19:44.220Z,25.63
2018-05-25T09:20:44.574Z,25.50
2018-05-25T09:21:44.939Z,25.48
2018-05-25T09:22:47.615Z,25.66
2018-05-25T09:23:45.744Z,25.59
2018-05-25T09:24:45.091Z,25.75
2018-05-25T09:25:45.297Z,25.85
2018-05-25T09:26:45.483Z,26.05
2018-05-25T09:27:45.795Z,26.21
2018-05-25T09:28:45.870Z,26.47
2018-05-25T09:29:46.056Z,27.08
2018-05-25T09:30:46.344Z,28.25
2018-05-25T09:31:46.357Z,28.60
2018-05-25T09:32:46.539Z,28.82
2018-05-25T09:33:46.731Z,29.39
2018-05-25T09:34:46.952Z,29.24
2018-05-25T09:35:47.159Z,29.16
2018-05-25T09:36:47.334Z,28.63
2018-05-25T09:37:47.537Z,28.30
2018-05-25T09:38:47.740Z,28.10
2018-05-25T09:39:48.061Z,27.90
2018-05-25T09:40:48.129Z,27.78
2018-05-25T09:41:48.321Z,27.54
2018-05-25T09:42:48.515Z,27.52
2018-05-25T09:43:48.700Z,27.07
2018-05-25T09:44:48.885Z,26.97
2018-05-25T09:45:49.080Z,27.02
2018-05-25T09:46:49.270Z,26.90
2018-05-25T09:47:49.459Z,26.81
2018-05-25T09:48:49.703Z,26.66
2018-05-25T09:49:49.849Z,26.51
2018-05-25T09:50:50.035Z,26.36
2018-05-25T09:51:50.215Z,26.52
2018-05-25T09:52:50.411Z,26.47
2018-05-25T09:53:50.633Z,26.48
2018-05-25T09:54:50.901Z,26.44
2018-05-25T09:55:50.963Z,26.52
2018-05-25T09:56:51.154Z,27.51
2018-05-25T09:57:51.342Z,27.14
2018-05-25T09:58:51.526Z,26.93
2018-05-25T09:59:51.709Z,26.80
2018-05-25T10:00:55.501Z,26.73
2018-05-25T10:01:52.075Z,26.58
2018-05-25T10:02:52.268Z,26.52
2018-05-25T10:03:52.478Z,26.43
2018-05-25T10:04:52.672Z,26.36
2018-05-25T10:05:52.869Z,26.23
2018-05-25T10:06:53.601Z,26.26
2018-05-25T10:07:53.168Z,26.00
2018-05-25T10:08:53.354Z,25.78
2018-05-25T10:09:53.547Z,25.78
2018-05-25T10:10:53.725Z,25.68
2018-05-25T10:11:53.920Z,25.48
2018-05-25T10:12:54.118Z,25.55
2018-05-25T10:13:54.304Z,25.25
2018-05-25T10:14:54.524Z,25.23
2018-05-25T10:15:54.715Z,25.26
2018-05-25T10:16:54.903Z,25.38
2018-05-25T10:17:55.143Z,25.50
2018-05-25T10:18:57.110Z,25.31
2018-05-25T10:19:55.441Z,25.28
2018-05-25T10:20:55.637Z,25.35
2018-05-25T10:21:55.833Z,25.36
2018-05-25T10:22:57.366Z,25.50
2018-05-25T10:23:56.205Z,25.63
2018-05-25T10:24:56.418Z,25.87
2018-05-25T10:25:56.614Z,26.03
2018-05-25T10:26:56.798Z,26.25
2018-05-25T10:27:56.993Z,26.53
2018-05-25T10:28:57.183Z,26.71
2018-05-25T10:29:57.378Z,26.43
2018-05-25T10:30:57.570Z,26.73
2018-05-25T10:31:57.751Z,26.65
2018-05-25T10:32:57.941Z,26.62
2018-05-25T10:33:58.135Z,26.77
2018-05-25T10:34:58.322Z,26.97
2018-05-25T10:35:58.502Z,27.25
2018-05-25T10:36:58.686Z,27.47
2018-05-25T10:37:58.873Z,27.65
2018-05-25T10:38:59.064Z,27.87
2018-05-25T10:39:59.256Z,27.95
2018-05-25T10:40:59.452Z,27.95
2018-05-25T10:41:59.624Z,27.90
2018-05-25T10:42:59.805Z,28.01
2018-05-25T10:43:59.997Z,28.14
2018-05-25T10:45:00.184Z,28.15
2018-05-25T10:46:00.365Z,28.33
2018-05-25T10:47:00.549Z,28.27
2018-05-25T10:48:00.745Z,28.42
2018-05-25T10:49:00.927Z,28.38
2018-05-25T10:50:01.120Z,28.37
2018-05-25T10:51:01.304Z,28.29
2018-05-25T10:52:01.491Z,28.56
2018-05-25T10:53:01.681Z,28.67
2018-05-25T10:54:01.884Z,28.97
2018-05-25T10:55:02.076Z,28.88
2018-05-25T10:56:02.299Z,28.59
2018-05-25T10:57:02.454Z,28.74
2018-05-25T10:58:02.637Z,28.72
2018-05-25T10:59:02.823Z,28.75
2018-05-25T11:00:03.011Z,28.74
2018-05-25T11:01:03.192Z,28.86
2018-05-25T11:02:03.387Z,29.04
2018-05-25T11:03:03.588Z,29.16
2018-05-25T11:04:03.770Z,29.20
2018-05-25T11:05:03.962Z,29.19
2018-05-25T11:06:04.155Z,29.38
2018-05-25T11:07:04.345Z,29.34
2018-05-25T11:08:04.537Z,29.50
2018-05-25T11:09:04.727Z,29.45
2018-05-25T11:10:04.958Z,29.53
2018-05-25T11:11:05.094Z,29.10
2018-05-25T11:12:05.276Z,29.01
2018-05-25T11:13:05.474Z,28.96
2018-05-25T11:14:05.661Z,29.07
2018-05-25T11:15:05.885Z,28.91
2018-05-25T11:16:06.079Z,28.86
2018-05-25T11:17:06.280Z,28.79
2018-05-25T11:18:06.440Z,28.70
2018-05-25T11:19:06.625Z,28.88
2018-05-25T11:20:06.812Z,28.81
2018-05-25T11:21:06.998Z,28.84
2018-05-25T11:22:07.187Z,28.89
2018-05-25T11:23:07.391Z,28.94
2018-05-25T11:24:07.578Z,29.12
2018-05-25T11:25:07.759Z,29.07
2018-05-25T11:26:07.952Z,29.24
2018-05-25T11:27:08.203Z,29.20
2018-05-25T11:28:08.354Z,29.34
2018-05-25T11:29:08.541Z,29.35
2018-05-25T11:30:08.724Z,29.26
2018-05-25T11:31:08.928Z,29.16
2018-05-25T11:32:09.183Z,28.81
2018-05-25T11:33:09.274Z,28.78
2018-05-25T11:34:09.450Z,28.70
2018-05-25T11:35:09.647Z,28.67
2018-05-25T11:36:09.885Z,28.52
2018-05-25T11:37:10.081Z,28.29
2018-05-25T11:38:10.282Z,28.17
2018-05-25T11:39:10.481Z,28.19
2018-05-25T11:40:10.702Z,28.19
2018-05-25T11:41:10.864Z,28.19
2018-05-25T11:42:11.052Z,28.11
2018-05-25T11:43:11.245Z,28.11
2018-05-25T11:44:11.442Z,27.96
2018-05-25T11:45:11.634Z,27.78
2018-05-25T11:46:11.821Z,27.90
2018-05-25T11:47:12.005Z,27.75
2018-05-25T11:48:12.189Z,27.71
2018-05-25T11:49:12.377Z,27.80
2018-05-25T11:50:12.584Z,27.70
2018-05-25T11:51:12.827Z,27.77
2018-05-25T11:52:12.952Z,27.73
2018-05-25T11:53:13.141Z,27.74
2018-05-25T11:54:13.325Z,27.73
2018-05-25T11:55:13.508Z,27.71
2018-05-25T11:56:13.692Z,27.83
2018-05-25T11:57:13.879Z,27.73
2018-05-25T11:58:14.071Z,27.77
2018-05-25T11:59:14.281Z,27.92
2018-05-25T12:00:14.497Z,27.93
2018-05-25T12:01:14.660Z,28.12
2018-05-25T12:02:14.840Z,28.15
2018-05-25T12:03:15.043Z,28.25
2018-05-25T12:04:15.235Z,28.12
2018-05-25T12:05:15.419Z,28.12
2018-05-25T12:06:15.736Z,28.05
2018-05-25T12:07:15.804Z,28.05
2018-05-25T12:08:15.999Z,28.20
2018-05-25T12:09:16.223Z,28.26
2018-05-25T12:10:16.837Z,28.35
2018-05-25T12:11:16.534Z,28.19
2018-05-25T12:12:16.718Z,28.27
2018-05-25T12:13:16.909Z,28.37
2018-05-25T12:14:17.101Z,28.39
2018-05-25T12:15:17.294Z,28.48
2018-05-25T12:16:17.486Z,28.60
2018-05-25T12:17:17.682Z,28.49
2018-05-25T12:18:17.883Z,28.39
2018-05-25T12:19:18.057Z,28.54
2018-05-25T12:20:18.253Z,28.25
2018-05-25T12:21:18.442Z,28.29
2018-05-25T12:22:20.154Z,28.33
2018-05-25T12:23:18.838Z,28.19
2018-05-25T12:24:19.021Z,28.25
2018-05-25T12:25:19.240Z,28.30
2018-05-25T12:26:19.680Z,28.15
2018-05-25T12:27:19.612Z,28.26
2018-05-25T12:28:19.836Z,28.29
2018-05-25T12:29:20.022Z,28.19
2018-05-25T12:30:20.260Z,28.01
2018-05-25T12:31:20.407Z,27.98
2018-05-25T12:32:20.808Z,28.07
2018-05-25T12:33:20.744Z,28.07
2018-05-25T12:34:21.365Z,28.04
2018-05-25T12:35:21.233Z,28.08
2018-05-25T12:36:21.387Z,28.29
2018-05-25T12:37:21.549Z,28.32
2018-05-25T12:38:22.194Z,28.52
2018-05-25T12:39:21.868Z,28.41
2018-05-25T12:40:22.056Z,28.47
2018-05-25T12:41:22.237Z,28.54
2018-05-25T12:42:22.449Z,28.67
2018-05-25T12:43:22.615Z,28.74
2018-05-25T12:44:22.840Z,28.67
2018-05-25T12:45:23.038Z,28.63
2018-05-25T12:46:23.292Z,28.59
2018-05-25T12:47:23.352Z,28.57
2018-05-25T12:48:23.539Z,28.48
2018-05-25T12:49:23.775Z,28.48
2018-05-25T12:50:23.834Z,28.45
2018-05-25T12:51:24.018Z,28.35
2018-05-25T12:52:24.215Z,28.57
2018-05-25T12:53:24.519Z,28.39
2018-05-25T12:54:24.585Z,28.60